createdAt,value
2019-05-10T00:01:29.540Z,10.08
2019-05-10T00:04:02.629Z,10.08
2019-05-10T00:06:35.652Z,10.16
2019-05-10T00:09:08.835Z,10.16
2019-05-10T00:11:41.909Z,10.15
2019-05-10T00:14:15.026Z,10.17
2019-05-10T00:16:47.954Z,10.17
2019-05-10T00:19:21.533Z,10.16
2019-05-10T00:21:54.678Z,10.12
2019-05-10T00:24:27.711Z,10.09
2019-05-10T00:27:00.766Z,10.06
2019-05-10T00:29:33.768Z,10.01
2019-05-10T00:32:06.844Z,10.01
2019-05-10T00:34:40.075Z,9.97
2019-05-10T00:37:13.214Z,9.97
2019-05-10T00:39:46.257Z,9.95
2019-05-10T00:42:19.281Z,9.96
2019-05-10T00:44:52.280Z,9.96
2019-05-10T00:47:25.514Z,10.02
2019-05-10T00:49:58.945Z,10.02
2019-05-10T00:52:32.168Z,10.02
2019-05-10T00:55:17.841Z,10.02
2019-05-10T00:57:40.453Z,9.99
2019-05-10T01:00:14.051Z,10.01
2019-05-10T01:02:47.051Z,10.01
2019-05-10T01:05:20.880Z,10.04
2019-05-10T01:07:53.836Z,10.04
2019-05-10T01:10:26.805Z,10.02
2019-05-10T01:12:59.815Z,10.03
2019-05-10T01:15:32.839Z,10.04
2019-05-10T01:18:05.919Z,10.04
2019-05-10T01:20:39.253Z,10.08
2019-05-10T01:23:12.179Z,10.08
2019-05-10T01:25:45.250Z,10.05
2019-05-10T01:28:18.153Z,10.06
2019-05-10T01:30:51.216Z,10.00
2019-05-10T01:33:24.612Z,10.00
2019-05-10T01:35:58.039Z,9.95
2019-05-10T01:38:30.974Z,9.86
2019-05-10T01:41:04.104Z,9.76
2019-05-10T01:43:37.113Z,9.56
2019-05-10T01:46:10.292Z,9.48
2019-05-10T01:48:43.197Z,9.48
2019-05-10T01:51:16.229Z,9.41
2019-05-10T01:53:49.408Z,9.30
2019-05-10T01:56:22.860Z,9.23
2019-05-10T01:58:55.888Z,9.23
2019-05-10T02:01:28.827Z,9.22
2019-05-10T02:04:01.911Z,9.22
2019-05-10T02:06:34.877Z,9.24
2019-05-10T02:09:08.085Z,9.24
2019-05-10T02:11:41.036Z,9.25
2019-05-10T02:14:14.024Z,9.22
2019-05-10T02:16:47.021Z,9.20
2019-05-10T02:19:20.362Z,9.18
2019-05-10T02:21:53.617Z,9.07
2019-05-10T02:24:26.505Z,9.07
2019-05-10T02:26:59.879Z,8.92
2019-05-10T02:29:33.123Z,8.88
2019-05-10T02:32:06.190Z,8.87
2019-05-10T02:34:39.178Z,8.87
2019-05-10T02:37:12.145Z,8.84
2019-05-10T02:39:45.455Z,8.84
2019-05-10T02:42:18.793Z,8.86
2019-05-10T02:44:51.865Z,8.81
2019-05-10T02:47:24.975Z,8.79
2019-05-10T02:49:59.397Z,8.77
2019-05-10T02:52:33.074Z,8.66
2019-05-10T02:55:06.161Z,8.68
2019-05-10T02:57:40.192Z,8.68
2019-05-10T03:00:13.659Z,8.68
2019-05-10T03:02:47.067Z,8.68
2019-05-10T03:05:20.131Z,8.68
2019-05-10T03:07:57.247Z,8.68
2019-05-10T03:10:33.251Z,8.73
2019-05-10T03:13:07.825Z,8.73
2019-05-10T03:15:43.876Z,8.72
2019-05-10T03:18:19.783Z,8.75
2019-05-10T03:20:55.988Z,8.74
2019-05-10T03:23:29.448Z,8.74
2019-05-10T03:26:02.307Z,8.73
2019-05-10T03:28:35.264Z,8.77
2019-05-10T03:31:08.457Z,8.78
2019-05-10T03:33:41.883Z,8.76
2019-05-10T03:36:15.125Z,8.76
2019-05-10T03:38:48.580Z,8.76
2019-05-10T03:41:22.581Z,8.76
2019-05-10T03:43:55.565Z,8.76
2019-05-10T03:46:28.496Z,8.75
2019-05-10T03:49:01.542Z,8.78
2019-05-10T03:51:34.868Z,8.78
2019-05-10T03:54:07.946Z,8.72
2019-05-10T03:56:41.158Z,8.72
2019-05-10T03:59:14.176Z,8.69
2019-05-10T04:01:47.092Z,8.48
2019-05-10T04:04:20.047Z,8.48
2019-05-10T04:06:53.039Z,8.48
2019-05-10T04:09:26.197Z,8.48
2019-05-10T04:11:59.099Z,8.53
2019-05-10T04:14:32.087Z,8.57
2019-05-10T04:17:04.982Z,8.70
2019-05-10T04:19:37.977Z,8.72
2019-05-10T04:22:10.907Z,8.73
2019-05-10T04:24:44.187Z,8.73
2019-05-10T04:27:31.259Z,8.73
2019-05-10T04:29:52.565Z,8.71
2019-05-10T04:32:25.670Z,8.71
2019-05-10T04:34:58.663Z,8.72
2019-05-10T04:37:31.574Z,8.72
2019-05-10T04:40:05.221Z,8.74
2019-05-10T04:42:38.218Z,8.76
2019-05-10T04:45:11.713Z,8.72
2019-05-10T04:47:45.108Z,8.72
2019-05-10T04:50:18.226Z,8.72
2019-05-10T04:52:51.528Z,8.71
2019-05-10T04:55:24.742Z,8.73
2019-05-10T04:57:57.858Z,8.76
2019-05-10T05:00:31.142Z,8.77
2019-05-10T05:03:04.154Z,8.77
2019-05-10T05:05:37.174Z,8.81
2019-05-10T05:08:10.184Z,8.82
2019-05-10T05:10:43.524Z,8.82
2019-05-10T05:13:16.442Z,8.81
2019-05-10T05:15:49.424Z,8.75
2019-05-10T05:18:22.416Z,8.75
2019-05-10T05:20:55.369Z,8.74
2019-05-10T05:23:28.621Z,8.74
2019-05-10T05:26:02.125Z,8.76
2019-05-10T05:28:35.038Z,8.77
2019-05-10T05:31:08.080Z,8.83
2019-05-10T05:33:41.265Z,8.83
2019-05-10T05:36:14.232Z,8.85
2019-05-10T05:38:49.542Z,8.86
2019-05-10T05:41:21.841Z,8.91
2019-05-10T05:43:54.749Z,8.94
2019-05-10T05:46:27.840Z,8.94
2019-05-10T05:49:00.946Z,8.93
2019-05-10T05:51:33.957Z,8.95
2019-05-10T05:54:06.949Z,8.95
2019-05-10T05:56:44.699Z,9.11
2019-05-10T05:59:17.330Z,9.11
2019-05-10T06:01:49.628Z,9.18
2019-05-10T06:04:22.579Z,9.27
2019-05-10T06:06:59.125Z,9.27
2019-05-10T06:09:31.916Z,9.22
2019-05-10T06:12:07.473Z,9.32
2019-05-10T06:14:43.158Z,9.32
2019-05-10T06:17:14.560Z,9.25
2019-05-10T06:19:47.530Z,9.20
2019-05-10T06:22:20.631Z,9.20
2019-05-10T06:24:53.973Z,9.21
2019-05-10T06:27:27.162Z,9.29
2019-05-10T06:30:00.659Z,9.29
2019-05-10T06:32:33.645Z,9.25
2019-05-10T06:35:07.200Z,9.17
2019-05-10T06:37:40.231Z,9.17
2019-05-10T06:40:13.823Z,9.21
2019-05-10T06:42:46.946Z,9.22
2019-05-10T06:45:22.091Z,9.32
2019-05-10T06:47:55.183Z,9.39
2019-05-10T06:50:29.875Z,9.39
2019-05-10T06:53:07.741Z,9.21
2019-05-10T06:55:37.613Z,9.21
2019-05-10T06:58:10.636Z,9.23
2019-05-10T07:00:47.292Z,9.23
2019-05-10T07:03:18.948Z,9.39
2019-05-10T07:05:51.937Z,9.39
2019-05-10T07:08:27.067Z,9.60
2019-05-10T07:11:00.109Z,9.60
2019-05-10T07:13:33.168Z,9.85
2019-05-10T07:16:06.089Z,9.85
2019-05-10T07:18:39.021Z,9.93
2019-05-10T07:21:12.034Z,9.90
2019-05-10T07:23:47.597Z,10.03
2019-05-10T07:26:23.941Z,10.03
2019-05-10T07:28:57.448Z,10.29
2019-05-10T07:31:30.169Z,10.25
2019-05-10T07:34:03.317Z,10.45
2019-05-10T07:36:36.323Z,10.62
2019-05-10T07:39:10.778Z,10.60
2019-05-10T07:41:44.357Z,10.97
2019-05-10T07:44:18.077Z,10.97
2019-05-10T07:46:54.338Z,10.92
2019-05-10T07:49:30.388Z,10.92
2019-05-10T07:52:02.672Z,10.68
2019-05-10T07:54:37.390Z,10.31
2019-05-10T07:57:09.900Z,10.31
2019-05-10T07:59:50.642Z,10.16
2019-05-10T08:02:17.656Z,10.23
2019-05-10T08:04:53.521Z,10.45
2019-05-10T08:07:25.233Z,10.51
2019-05-10T08:09:59.429Z,10.53
2019-05-10T08:12:35.276Z,10.67
2019-05-10T08:15:08.558Z,10.67
2019-05-10T08:17:45.510Z,10.82
2019-05-10T08:20:30.654Z,11.09
2019-05-10T08:22:52.631Z,11.53
2019-05-10T08:25:29.335Z,11.53
2019-05-10T08:28:04.256Z,11.69
2019-05-10T08:30:51.381Z,12.07
2019-05-10T08:33:15.850Z,12.08
2019-05-10T08:35:58.088Z,12.08
2019-05-10T08:38:24.186Z,12.46
2019-05-10T08:40:57.194Z,12.82
2019-05-10T08:43:38.665Z,12.59
2019-05-10T08:46:04.932Z,12.58
2019-05-10T08:48:43.443Z,12.58
2019-05-10T08:51:13.124Z,12.72
2019-05-10T08:53:47.205Z,13.43
2019-05-10T08:56:24.004Z,13.43
2019-05-10T08:58:55.914Z,13.67
2019-05-10T09:01:30.607Z,13.41
2019-05-10T09:04:06.734Z,13.13
2019-05-10T09:06:38.962Z,13.32
2019-05-10T09:09:12.529Z,13.32
2019-05-10T09:11:45.721Z,13.54
2019-05-10T09:14:20.333Z,13.56
2019-05-10T09:17:00.791Z,13.87
2019-05-10T09:19:37.472Z,13.39
2019-05-10T09:22:03.317Z,13.39
2019-05-10T09:24:43.230Z,12.80
2019-05-10T09:27:12.869Z,12.66
2019-05-10T09:29:45.650Z,14.89
2019-05-10T09:32:23.449Z,17.92
2019-05-10T09:34:54.391Z,17.73
2019-05-10T09:37:27.486Z,16.41
2019-05-10T09:40:05.427Z,16.41
2019-05-10T09:42:40.063Z,14.24
2019-05-10T09:45:10.536Z,13.59
2019-05-10T09:47:44.692Z,13.00
2019-05-10T09:50:17.996Z,12.70
2019-05-10T09:52:50.915Z,12.89
2019-05-10T09:55:23.843Z,13.35
2019-05-10T09:57:58.318Z,13.35
2019-05-10T10:00:33.138Z,13.74
2019-05-10T10:03:08.303Z,13.45
2019-05-10T10:05:41.921Z,13.59
2019-05-10T10:08:14.899Z,15.76
2019-05-10T10:10:47.876Z,15.94
2019-05-10T10:13:36.917Z,15.83
2019-05-10T10:15:57.988Z,14.69
2019-05-10T10:18:30.759Z,13.75
2019-05-10T10:21:03.810Z,13.42
2019-05-10T10:23:37.807Z,14.03
2019-05-10T10:26:12.651Z,14.00
2019-05-10T10:28:49.707Z,14.48
2019-05-10T10:31:29.551Z,14.26
2019-05-10T10:34:02.615Z,13.82
2019-05-10T10:36:30.720Z,13.82
2019-05-10T10:39:07.422Z,13.39
2019-05-10T10:41:39.894Z,13.39
2019-05-10T10:44:12.806Z,14.34
2019-05-10T10:46:47.766Z,16.82
2019-05-10T10:49:23.092Z,16.80
2019-05-10T10:51:57.201Z,15.00
2019-05-10T10:54:36.509Z,15.00
2019-05-10T10:57:05.132Z,14.84
2019-05-10T10:59:38.385Z,15.27
2019-05-10T11:04:46.550Z,14.43
2019-05-10T11:07:20.499Z,14.48
2019-05-10T11:10:04.678Z,14.48
2019-05-10T11:12:27.932Z,14.32
2019-05-10T11:15:01.247Z,14.19
2019-05-10T11:17:34.254Z,15.48
2019-05-10T11:20:09.274Z,18.01
2019-05-10T11:22:49.617Z,16.62
2019-05-10T11:25:16.828Z,15.55
2019-05-10T11:27:56.420Z,15.09
2019-05-10T11:30:26.714Z,15.09
2019-05-10T11:33:00.550Z,15.20
2019-05-10T11:35:34.685Z,15.20
2019-05-10T11:38:12.948Z,14.61
2019-05-10T11:40:42.651Z,14.47
2019-05-10T11:43:17.395Z,14.71
2019-05-10T11:45:51.460Z,14.71
2019-05-10T11:48:28.963Z,14.61
2019-05-10T11:50:59.952Z,14.61
2019-05-10T11:53:32.866Z,14.60
2019-05-10T11:56:07.768Z,14.77
2019-05-10T11:58:45.982Z,15.54
2019-05-10T12:03:51.797Z,16.49
2019-05-10T12:06:24.717Z,15.72
2019-05-10T12:09:02.087Z,15.49
2019-05-10T12:11:34.111Z,16.24
2019-05-10T12:14:07.273Z,16.24
2019-05-10T12:16:41.972Z,15.38
2019-05-10T12:21:55.512Z,16.25
2019-05-10T12:24:39.000Z,16.67
2019-05-10T12:26:03.777Z,16.49
2019-05-10T12:26:27.772Z,14.92
2019-05-10T12:27:17.282Z,16.15
2019-05-10T12:29:34.198Z,15.52
2019-05-10T12:32:07.073Z,14.74
2019-05-10T12:34:41.008Z,14.47
2019-05-10T12:37:14.162Z,14.73
2019-05-10T12:39:47.075Z,14.73
2019-05-10T12:42:21.828Z,15.26
2019-05-10T12:44:55.936Z,15.42
2019-05-10T12:47:30.973Z,15.42
2019-05-10T12:50:03.845Z,15.53
2019-05-10T12:52:37.073Z,15.53
2019-05-10T12:55:10.331Z,15.89
2019-05-10T12:57:43.751Z,17.98
2019-05-10T13:00:16.978Z,20.55
2019-05-10T13:02:51.879Z,20.09
2019-05-10T13:05:31.722Z,20.04
2019-05-10T13:07:59.700Z,18.96
2019-05-10T13:10:37.375Z,16.71
2019-05-10T13:13:07.142Z,16.71
2019-05-10T13:15:39.974Z,15.78
2019-05-10T13:18:12.862Z,15.06
2019-05-10T13:20:45.778Z,14.51
2019-05-10T13:23:18.690Z,14.51
2019-05-10T13:25:51.521Z,14.61
2019-05-10T13:28:24.420Z,14.61
2019-05-10T13:30:59.954Z,16.43
2019-05-10T13:33:40.927Z,17.23
2019-05-10T13:36:06.592Z,16.14
2019-05-10T13:38:43.865Z,16.14
2019-05-10T13:41:17.922Z,15.99
2019-05-10T13:43:49.003Z,17.64
2019-05-10T13:46:21.807Z,17.79
2019-05-10T13:48:54.689Z,17.46
2019-05-10T13:51:27.535Z,17.46
2019-05-10T13:54:00.914Z,17.34
2019-05-10T13:56:35.008Z,17.52
2019-05-10T13:59:15.640Z,16.60
2019-05-10T14:01:44.240Z,15.88
2019-05-10T14:04:17.633Z,15.88
2019-05-10T14:06:50.480Z,16.46
2019-05-10T14:09:23.401Z,16.60
2019-05-10T14:11:56.227Z,17.30
2019-05-10T14:14:29.162Z,17.49
2019-05-10T14:17:01.988Z,17.49
2019-05-10T14:19:36.336Z,17.59
2019-05-10T14:22:09.341Z,17.73
2019-05-10T14:24:46.638Z,17.41
2019-05-10T14:27:17.120Z,17.10
2019-05-10T14:29:49.983Z,16.91
2019-05-10T14:32:22.820Z,18.73
2019-05-10T14:34:55.732Z,19.95
2019-05-10T14:37:28.711Z,18.78
2019-05-10T14:40:01.697Z,18.78
2019-05-10T14:42:34.521Z,18.52
2019-05-10T14:45:08.928Z,17.81
2019-05-10T14:47:48.448Z,17.21
2019-05-10T14:50:19.569Z,16.25
2019-05-10T14:52:51.784Z,15.79
2019-05-10T14:55:32.143Z,15.75
2019-05-10T14:57:59.591Z,15.50
2019-05-10T15:00:32.465Z,15.34
2019-05-10T15:03:05.362Z,15.33
2019-05-10T15:05:38.468Z,15.45
2019-05-10T15:08:11.293Z,15.87
2019-05-10T15:10:44.193Z,15.87
2019-05-10T15:13:19.521Z,15.96
2019-05-10T15:15:51.621Z,15.57
2019-05-10T15:18:24.452Z,16.03
2019-05-10T15:20:57.553Z,16.23
2019-05-10T15:23:30.483Z,16.23
2019-05-10T15:26:10.123Z,15.60
2019-05-10T15:28:40.202Z,15.60
2019-05-10T15:31:13.072Z,15.27
2019-05-10T15:33:46.161Z,15.28
2019-05-10T15:36:23.536Z,15.37
2019-05-10T15:38:53.595Z,15.56
2019-05-10T15:41:27.393Z,15.51
2019-05-10T15:44:00.218Z,15.29
2019-05-10T15:46:38.774Z,14.95
2019-05-10T15:49:08.077Z,14.99
2019-05-10T15:51:41.018Z,15.04
2019-05-10T15:54:13.838Z,15.04
2019-05-10T15:56:46.760Z,15.50
2019-05-10T15:59:21.334Z,15.50
2019-05-10T16:01:54.170Z,15.09
2019-05-10T16:04:27.072Z,14.43
2019-05-10T16:07:00.029Z,14.25
2019-05-10T16:09:32.876Z,14.06
2019-05-10T16:12:08.763Z,13.69
2019-05-10T16:14:41.630Z,13.69
2019-05-10T16:17:17.020Z,13.51
2019-05-10T16:19:55.926Z,13.66
2019-05-10T16:22:30.430Z,13.81
2019-05-10T16:25:02.478Z,13.71
2019-05-10T16:27:40.421Z,13.71
2019-05-10T16:30:12.135Z,13.77
2019-05-10T17:23:13.160Z,13.40
2019-05-10T17:25:46.048Z,13.21
2019-05-10T17:28:19.163Z,13.21
2019-05-10T17:30:52.176Z,13.11
2019-05-10T17:33:25.021Z,12.96
2019-05-10T17:36:07.989Z,12.96
2019-05-10T17:38:33.073Z,12.98
2019-05-10T17:41:06.054Z,13.04
2019-05-10T17:43:39.919Z,13.13
2019-05-10T17:46:18.527Z,13.06
2019-05-10T17:48:49.547Z,12.90
2019-05-10T17:51:22.731Z,12.84
2019-05-10T17:54:01.421Z,12.78
2019-05-10T17:56:32.841Z,12.78
2019-05-10T17:59:11.671Z,12.66
2019-05-10T18:01:40.591Z,12.49
2019-05-10T18:04:13.523Z,12.24
2019-05-10T18:06:46.506Z,12.00
2019-05-10T18:09:19.393Z,11.69
2019-05-10T18:11:52.303Z,11.60
2019-05-10T18:14:25.261Z,11.60
2019-05-10T18:16:58.332Z,11.49
2019-05-10T18:19:31.289Z,11.34
2019-05-10T18:22:06.400Z,11.34
2019-05-10T18:24:42.264Z,11.23
2019-05-10T18:27:13.956Z,11.07
2019-05-10T18:29:46.849Z,10.98
2019-05-10T18:32:19.833Z,10.91
2019-05-10T18:34:52.973Z,10.83
2019-05-10T18:37:26.014Z,10.75
2019-05-10T18:39:59.101Z,10.66
2019-05-10T18:42:32.527Z,10.53
2019-05-10T18:45:06.340Z,10.45
2019-05-10T18:47:39.388Z,10.41
2019-05-10T18:50:12.713Z,10.40
2019-05-10T18:52:45.713Z,10.40
2019-05-10T18:55:18.704Z,10.40
2019-05-10T18:57:52.609Z,10.56
2019-05-10T19:00:26.209Z,10.64
2019-05-10T19:02:59.208Z,10.70
2019-05-10T19:05:33.190Z,10.70
2019-05-10T19:08:06.635Z,10.66
2019-05-10T19:10:39.773Z,10.60
2019-05-10T19:13:13.404Z,10.57
2019-05-10T19:15:52.933Z,10.57
2019-05-10T19:18:23.103Z,10.54
2019-05-10T19:20:56.193Z,10.49
2019-05-10T19:23:29.410Z,10.47
2019-05-10T19:26:02.313Z,10.42
2019-05-10T19:28:35.501Z,10.44
2019-05-10T19:31:08.400Z,10.42
2019-05-10T19:33:41.332Z,10.42
2019-05-10T19:36:14.781Z,10.39
2019-05-10T19:38:47.746Z,10.21
2019-05-10T19:41:25.533Z,10.21
2019-05-10T19:44:01.886Z,10.17
2019-05-10T19:46:38.843Z,10.15
2019-05-10T19:49:07.527Z,10.06
2019-05-10T19:51:47.576Z,10.04
2019-05-10T19:54:19.476Z,10.04
2019-05-10T19:56:49.297Z,10.04
2019-05-10T19:59:22.530Z,9.99
2019-05-10T20:01:55.551Z,9.99
2019-05-10T20:04:29.160Z,9.90
2019-05-10T20:07:02.114Z,9.77
2019-05-10T20:09:35.089Z,9.77
2019-05-10T20:12:08.146Z,9.65
2019-05-10T20:14:41.025Z,9.55
2019-05-10T20:17:14.839Z,9.51
2019-05-10T20:19:47.837Z,9.38
2019-05-10T20:22:20.720Z,9.20
2019-05-10T20:24:54.400Z,9.10
2019-05-10T20:27:27.370Z,8.98
2019-05-10T20:30:00.635Z,8.88
2019-05-10T20:32:33.633Z,8.88
2019-05-10T20:35:07.311Z,8.67
2019-05-10T20:37:40.349Z,8.61
2019-05-10T20:40:13.990Z,8.61
2019-05-10T20:42:46.874Z,8.57
2019-05-10T20:45:19.913Z,8.51
2019-05-10T20:47:52.936Z,8.39
2019-05-10T20:50:26.000Z,8.40
2019-05-10T20:52:58.892Z,8.38
2019-05-10T20:55:32.014Z,8.37
2019-05-10T20:58:05.006Z,8.32
2019-05-10T21:00:38.376Z,8.27
2019-05-10T21:03:11.263Z,8.27
2019-05-10T21:05:44.187Z,8.13
2019-05-10T21:08:17.579Z,8.10
2019-05-10T21:10:50.839Z,8.10
2019-05-10T21:13:23.743Z,7.91
2019-05-10T21:15:57.224Z,7.91
2019-05-10T21:18:30.252Z,7.80
2019-05-10T21:21:03.315Z,7.74
2019-05-10T21:23:36.214Z,7.67
2019-05-10T21:26:09.194Z,7.67
2019-05-10T21:28:42.243Z,7.63
2019-05-10T21:31:15.259Z,7.54
2019-05-10T21:33:48.883Z,7.45
2019-05-10T21:36:24.663Z,7.36
2019-05-10T21:38:56.448Z,7.36
2019-05-10T21:41:29.407Z,7.24
2019-05-10T21:44:02.404Z,7.14
2019-05-10T21:46:35.821Z,7.08
2019-05-10T21:49:10.940Z,7.08
2019-05-10T21:51:43.873Z,7.03
2019-05-10T21:54:16.771Z,6.95
2019-05-10T21:56:49.711Z,6.86
2019-05-10T21:59:22.741Z,6.80
2019-05-10T22:01:56.104Z,6.77
2019-05-10T22:04:28.986Z,6.75
2019-05-10T22:07:02.335Z,6.67
2019-05-10T22:09:35.220Z,6.67
2019-05-10T22:12:08.341Z,6.68
2019-05-10T22:14:41.328Z,6.66
2019-05-10T22:17:14.355Z,6.59
2019-05-10T22:19:47.308Z,6.58
2019-05-10T22:22:20.273Z,6.57
2019-05-10T22:24:53.177Z,6.58
2019-05-10T22:27:26.203Z,6.55
2019-05-10T22:29:59.071Z,6.47
2019-05-10T22:32:32.288Z,6.41
2019-05-10T22:35:06.231Z,6.34
2019-05-10T22:37:39.270Z,6.25
2019-05-10T22:40:12.427Z,6.19
2019-05-10T22:42:45.744Z,6.12
2019-05-10T22:45:18.778Z,6.11
2019-05-10T22:47:51.717Z,6.00
2019-05-10T22:50:24.811Z,6.00
2019-05-10T22:52:58.041Z,5.93
2019-05-10T22:55:30.963Z,5.87
2019-05-10T22:58:04.077Z,5.80
2019-05-10T23:00:36.960Z,5.73
2019-05-10T23:03:09.939Z,5.69
2019-05-10T23:05:42.852Z,5.65
2019-05-10T23:08:15.987Z,5.58
2019-05-10T23:10:48.917Z,5.58
2019-05-10T23:13:21.989Z,5.58
2019-05-10T23:15:54.892Z,5.56
2019-05-10T23:18:27.975Z,5.56
2019-05-10T23:21:00.941Z,5.56
2019-05-10T23:23:33.915Z,5.59
2019-05-10T23:26:07.202Z,5.52
2019-05-10T23:28:40.223Z,5.34
2019-05-10T23:31:13.183Z,5.32
2019-05-10T23:33:46.203Z,5.32
2019-05-10T23:36:19.159Z,5.23
2019-05-10T23:38:52.410Z,5.18
2019-05-10T23:41:25.278Z,5.17
2019-05-10T23:43:58.222Z,5.13
2019-05-10T23:46:31.099Z,5.07
2019-05-10T23:49:04.305Z,5.08
2019-05-10T23:51:37.891Z,5.08
2019-05-10T23:54:10.912Z,5.09
2019-05-10T23:56:43.978Z,5.10
2019-05-10T23:59:17.102Z,5.07
